createdAt,value
2017-03-24T00:00:27.363Z,56.22
2017-03-24T00:01:28.662Z,60.82
2017-03-24T00:02:29.007Z,61.55
2017-03-24T00:03:29.286Z,57.02
2017-03-24T00:04:30.016Z,55.50
2017-03-24T00:05:30.122Z,57.97
2017-03-24T00:06:30.159Z,59.93
2017-03-24T00:07:30.247Z,57.82
2017-03-24T00:08:30.443Z,59.68
2017-03-24T00:09:30.575Z,57.43
2017-03-24T00:10:30.738Z,58.37
2017-03-24T00:11:31.442Z,55.78
2017-03-24T00:12:31.620Z,58.77
2017-03-24T00:13:31.750Z,56.68
2017-03-24T00:14:31.984Z,62.42
2017-03-24T00:15:32.079Z,64.45
2017-03-24T00:16:32.244Z,61.70
2017-03-24T00:17:32.416Z,58.17
2017-03-24T00:18:32.491Z,57.78
2017-03-24T00:19:32.686Z,61.80
2017-03-24T00:20:32.794Z,59.25
2017-03-24T00:21:33.591Z,57.73
2017-03-24T00:22:33.696Z,67.27
2017-03-24T00:23:33.795Z,56.58
2017-03-24T00:24:33.911Z,62.17
2017-03-24T00:25:34.043Z,62.33
2017-03-24T00:26:34.153Z,62.70
2017-03-24T00:27:34.302Z,64.72
2017-03-24T00:28:35.250Z,55.22
2017-03-24T00:29:36.827Z,60.25
2017-03-24T00:30:38.103Z,57.13
2017-03-24T00:31:38.957Z,61.48
2017-03-24T00:32:39.073Z,62.35
2017-03-24T00:33:39.898Z,60.67
2017-03-24T00:34:39.947Z,58.02
2017-03-24T00:35:39.989Z,59.97
2017-03-24T00:36:39.947Z,53.78
2017-03-24T00:37:39.977Z,54.63
2017-03-24T00:38:39.944Z,61.77
2017-03-24T00:39:39.937Z,66.75
2017-03-24T00:40:39.963Z,62.17
2017-03-24T00:41:39.967Z,55.50
2017-03-24T00:42:39.987Z,60.33
2017-03-24T00:43:39.952Z,57.58
2017-03-24T00:44:39.933Z,60.53
2017-03-24T00:45:40.007Z,60.87
2017-03-24T00:46:39.995Z,61.12
2017-03-24T00:47:40.014Z,63.03
2017-03-24T00:48:40.010Z,62.40
2017-03-24T00:49:39.995Z,57.32
2017-03-24T00:50:39.977Z,60.37
2017-03-24T00:51:39.920Z,60.92
2017-03-24T00:52:39.869Z,59.47
2017-03-24T00:53:39.851Z,56.78
2017-03-24T00:54:39.798Z,54.52
2017-03-24T00:55:39.759Z,61.47
2017-03-24T00:56:39.784Z,65.62
2017-03-24T00:57:40.316Z,61.08
2017-03-24T00:58:40.354Z,60.85
2017-03-24T00:59:41.100Z,58.32
2017-03-24T01:00:41.816Z,56.35
2017-03-24T01:01:41.783Z,55.35
2017-03-24T01:02:41.799Z,56.60
2017-03-24T01:03:42.816Z,56.43
2017-03-24T01:04:42.797Z,63.28
2017-03-24T01:05:42.776Z,59.52
2017-03-24T01:06:42.780Z,58.17
2017-03-24T01:07:43.591Z,59.50
2017-03-24T01:08:44.410Z,55.57
2017-03-24T01:09:44.414Z,57.95
2017-03-24T01:10:44.430Z,59.18
2017-03-24T01:11:44.459Z,60.87
2017-03-24T01:12:44.560Z,62.73
2017-03-24T01:13:44.602Z,58.47
2017-03-24T01:14:44.754Z,60.15
2017-03-24T01:15:45.518Z,61.22
2017-03-24T01:16:45.582Z,56.77
2017-03-24T01:17:45.656Z,60.02
2017-03-24T01:18:45.665Z,62.75
2017-03-24T01:19:45.693Z,62.72
2017-03-24T01:20:45.748Z,56.83
2017-03-24T01:21:45.729Z,59.78
2017-03-24T01:22:46.188Z,59.42
2017-03-24T01:23:46.206Z,61.20
2017-03-24T01:24:46.678Z,61.73
2017-03-24T01:25:47.581Z,56.98
2017-03-24T01:26:47.559Z,57.00
2017-03-24T01:27:47.582Z,56.97
2017-03-24T01:28:47.614Z,60.20
2017-03-24T01:29:48.281Z,58.13
2017-03-24T01:30:48.261Z,59.73
2017-03-24T01:31:48.261Z,56.02
2017-03-24T01:32:48.984Z,55.27
2017-03-24T01:33:48.995Z,56.65
2017-03-24T01:34:48.997Z,51.87
2017-03-24T01:35:49.063Z,55.63
2017-03-24T01:36:49.002Z,52.70
2017-03-24T01:37:48.959Z,55.65
2017-03-24T01:38:49.035Z,51.50
2017-03-24T01:39:49.731Z,56.10
2017-03-24T01:40:49.725Z,58.50
2017-03-24T01:41:49.726Z,50.70
2017-03-24T01:42:49.688Z,56.15
2017-03-24T01:43:49.809Z,55.58
2017-03-24T01:44:49.802Z,55.57
2017-03-24T01:45:49.871Z,55.02
2017-03-24T01:46:49.848Z,56.13
2017-03-24T01:47:49.818Z,53.95
2017-03-24T01:48:49.810Z,57.90
2017-03-24T01:49:49.816Z,56.50
2017-03-24T01:50:49.819Z,56.07
2017-03-24T01:51:49.810Z,60.73
2017-03-24T01:52:49.815Z,58.90
2017-03-24T01:53:49.855Z,53.70
2017-03-24T01:54:49.886Z,51.18
2017-03-24T01:55:54.140Z,56.45
2017-03-24T01:56:54.157Z,54.92
2017-03-24T01:57:54.879Z,55.43
2017-03-24T01:58:54.919Z,57.75
2017-03-24T01:59:54.866Z,52.72
2017-03-24T02:00:54.901Z,55.90
2017-03-24T02:01:55.081Z,55.27
2017-03-24T02:02:55.066Z,56.78
2017-03-24T02:03:55.073Z,53.62
2017-03-24T02:04:55.035Z,56.70
2017-03-24T02:05:55.158Z,53.37
2017-03-24T02:06:55.171Z,59.78
2017-03-24T02:07:55.182Z,56.70
2017-03-24T02:08:55.247Z,57.83
2017-03-24T02:09:55.235Z,52.45
2017-03-24T02:10:55.187Z,55.50
2017-03-24T02:11:55.205Z,55.42
2017-03-24T02:12:55.250Z,55.13
2017-03-24T02:13:55.238Z,58.27
2017-03-24T02:14:55.187Z,52.85
2017-03-24T02:15:55.881Z,56.78
2017-03-24T02:16:55.855Z,55.43
2017-03-24T02:17:55.842Z,50.63
2017-03-24T02:18:56.563Z,53.95
2017-03-24T02:19:56.508Z,56.07
2017-03-24T02:20:56.462Z,55.85
2017-03-24T02:21:56.455Z,55.20
2017-03-24T02:22:56.499Z,53.87
2017-03-24T02:23:57.370Z,48.28
2017-03-24T02:25:01.861Z,55.10
2017-03-24T02:26:01.990Z,53.88
2017-03-24T02:27:02.022Z,51.88
2017-03-24T02:28:02.019Z,51.60
2017-03-24T02:29:02.022Z,54.58
2017-03-24T02:30:01.994Z,51.12
2017-03-24T02:31:01.990Z,54.52
2017-03-24T02:32:02.031Z,54.32
2017-03-24T02:33:02.019Z,51.88
2017-03-24T02:34:02.071Z,55.70
2017-03-24T02:35:02.070Z,56.00
2017-03-24T02:36:02.026Z,57.37
2017-03-24T02:37:02.053Z,55.20
2017-03-24T02:38:02.048Z,54.57
2017-03-24T02:39:02.198Z,55.93
2017-03-24T02:40:02.250Z,56.27
2017-03-24T02:41:02.255Z,56.48
2017-03-24T02:42:02.262Z,52.95
2017-03-24T02:43:02.230Z,53.18
2017-03-24T02:44:02.351Z,54.72
2017-03-24T02:45:02.422Z,52.78
2017-03-24T02:46:02.419Z,51.73
2017-03-24T02:47:02.435Z,51.67
2017-03-24T02:48:02.457Z,54.43
2017-03-24T02:49:02.449Z,48.23
2017-03-24T02:50:02.448Z,55.05
2017-03-24T02:51:02.443Z,53.78
2017-03-24T02:52:02.485Z,55.52
2017-03-24T02:53:02.464Z,50.52
2017-03-24T02:54:02.493Z,51.57
2017-03-24T02:55:02.555Z,56.32
2017-03-24T02:56:02.589Z,55.70
2017-03-24T02:57:02.561Z,53.62
2017-03-24T02:58:02.557Z,56.12
2017-03-24T02:59:02.576Z,50.27
2017-03-24T03:00:02.610Z,55.90
2017-03-24T03:01:02.666Z,51.10
2017-03-24T03:02:02.625Z,53.85
2017-03-24T03:03:02.644Z,53.00
2017-03-24T03:04:02.722Z,49.80
2017-03-24T03:05:02.757Z,52.87
2017-03-24T03:06:02.748Z,46.17
2017-03-24T03:07:02.840Z,51.63
2017-03-24T03:08:02.810Z,49.52
2017-03-24T03:09:03.317Z,48.63
2017-03-24T03:10:03.351Z,53.53
2017-03-24T03:11:03.658Z,50.70
2017-03-24T03:12:03.649Z,51.43
2017-03-24T03:13:03.703Z,50.25
2017-03-24T03:14:03.695Z,51.38
2017-03-24T03:15:03.708Z,51.95
2017-03-24T03:16:03.718Z,49.43
2017-03-24T03:17:03.768Z,46.20
2017-03-24T03:18:03.799Z,52.52
2017-03-24T03:19:03.801Z,49.67
2017-03-24T03:20:03.797Z,47.43
2017-03-24T03:21:03.803Z,49.35
2017-03-24T03:22:03.847Z,46.00
2017-03-24T03:23:03.801Z,45.75
2017-03-24T03:24:03.814Z,48.08
2017-03-24T03:25:05.499Z,48.60
2017-03-24T03:26:06.247Z,45.87
2017-03-24T03:27:06.266Z,45.15
2017-03-24T03:28:06.333Z,54.20
2017-03-24T03:29:06.375Z,47.90
2017-03-24T03:30:06.390Z,48.57
2017-03-24T03:31:06.421Z,51.78
2017-03-24T03:32:06.413Z,51.30
2017-03-24T03:33:06.391Z,52.53
2017-03-24T03:34:06.398Z,49.98
2017-03-24T03:35:06.427Z,50.72
2017-03-24T03:36:06.453Z,51.45
2017-03-24T03:37:06.468Z,52.22
2017-03-24T03:38:06.466Z,45.03
2017-03-24T03:39:06.509Z,54.63
2017-03-24T03:40:06.512Z,49.20
2017-03-24T03:41:06.571Z,43.88
2017-03-24T03:42:06.548Z,47.73
2017-03-24T03:43:06.573Z,49.02
2017-03-24T03:44:06.593Z,51.15
2017-03-24T03:45:06.606Z,52.52
2017-03-24T03:46:06.653Z,52.20
2017-03-24T03:47:07.436Z,53.18
2017-03-24T03:48:07.440Z,49.72
2017-03-24T03:49:07.442Z,55.33
2017-03-24T03:50:07.490Z,52.98
2017-03-24T03:51:07.521Z,53.25
2017-03-24T03:52:07.486Z,53.83
2017-03-24T03:53:07.454Z,50.53
2017-03-24T03:54:07.506Z,57.25
2017-03-24T03:55:07.489Z,55.20
2017-03-24T03:56:07.501Z,52.08
2017-03-24T03:57:07.518Z,50.47
2017-03-24T03:58:07.541Z,55.25
2017-03-24T03:59:07.518Z,50.17
2017-03-24T04:00:07.482Z,55.57
2017-03-24T04:01:07.603Z,54.70
2017-03-24T04:02:07.628Z,55.90
2017-03-24T04:03:07.649Z,58.10
2017-03-24T04:04:07.654Z,50.63
2017-03-24T04:05:07.694Z,56.30
2017-03-24T04:06:07.741Z,50.42
2017-03-24T04:07:07.727Z,47.83
2017-03-24T04:08:08.506Z,55.45
2017-03-24T04:09:08.561Z,51.63
2017-03-24T04:10:08.604Z,53.85
2017-03-24T04:11:08.611Z,53.22
2017-03-24T04:12:08.642Z,55.08
2017-03-24T04:13:08.638Z,54.60
2017-03-24T04:14:08.703Z,52.13
2017-03-24T04:15:08.775Z,54.45
2017-03-24T04:16:08.780Z,50.63
2017-03-24T04:17:09.453Z,50.85
2017-03-24T04:18:09.426Z,50.78
2017-03-24T04:19:09.455Z,52.37
2017-03-24T04:20:09.490Z,54.67
2017-03-24T04:21:09.554Z,52.20
2017-03-24T04:22:09.553Z,56.92
2017-03-24T04:23:09.549Z,54.73
2017-03-24T04:24:09.528Z,57.40
2017-03-24T04:25:10.424Z,54.52
2017-03-24T04:26:10.452Z,57.00
2017-03-24T04:27:10.434Z,52.42
2017-03-24T04:28:10.467Z,52.75
2017-03-24T04:29:10.457Z,55.18
2017-03-24T04:30:10.521Z,53.25
2017-03-24T04:31:10.566Z,51.33
2017-03-24T04:32:11.295Z,51.17
2017-03-24T04:33:11.266Z,50.78
2017-03-24T04:34:11.235Z,50.63
2017-03-24T04:35:17.630Z,53.37
2017-03-24T04:36:17.669Z,55.58
2017-03-24T04:37:17.642Z,52.63
2017-03-24T04:38:17.675Z,57.97
2017-03-24T04:39:17.692Z,56.25
2017-03-24T04:40:17.698Z,52.63
2017-03-24T04:41:17.700Z,49.38
2017-03-24T04:42:17.722Z,55.12
2017-03-24T04:43:17.738Z,59.95
2017-03-24T04:44:17.714Z,67.12
2017-03-24T04:45:24.311Z,55.45
2017-03-24T04:46:24.354Z,53.23
2017-03-24T04:47:24.357Z,56.53
2017-03-24T04:48:24.363Z,51.37
2017-03-24T04:49:24.348Z,53.37
2017-03-24T04:50:24.406Z,49.98
2017-03-24T04:51:24.431Z,45.65
2017-03-24T04:52:24.439Z,51.93
2017-03-24T04:53:24.438Z,50.72
2017-03-24T04:54:25.847Z,49.17
2017-03-24T04:55:25.822Z,46.13
2017-03-24T04:56:25.866Z,49.65
2017-03-24T04:57:26.582Z,47.87
2017-03-24T04:58:26.557Z,48.47
2017-03-24T04:59:26.538Z,45.62
2017-03-24T05:00:26.581Z,48.00
2017-03-24T05:01:26.599Z,47.78
2017-03-24T05:02:26.593Z,46.27
2017-03-24T05:03:26.563Z,47.52
2017-03-24T05:04:26.599Z,48.12
2017-03-24T05:05:26.558Z,47.12
2017-03-24T05:06:26.573Z,46.87
2017-03-24T05:07:26.534Z,40.83
2017-03-24T05:08:26.511Z,41.93
2017-03-24T05:09:26.529Z,44.65
2017-03-24T05:10:26.526Z,38.45
2017-03-24T05:11:26.491Z,45.22
2017-03-24T05:12:27.227Z,42.12
2017-03-24T05:13:27.162Z,41.77
2017-03-24T05:14:27.184Z,45.32
2017-03-24T05:15:27.155Z,43.80
2017-03-24T05:16:27.117Z,44.18
2017-03-24T05:17:28.315Z,44.45
2017-03-24T05:18:28.319Z,44.92
2017-03-24T05:19:28.398Z,41.33
2017-03-24T05:20:28.368Z,39.52
2017-03-24T05:21:28.414Z,48.58
2017-03-24T05:22:28.358Z,39.88
2017-03-24T05:23:28.322Z,42.03
2017-03-24T05:24:28.287Z,43.13
2017-03-24T05:25:28.256Z,44.73
2017-03-24T05:26:28.237Z,41.80
2017-03-24T05:27:28.961Z,40.68
2017-03-24T05:28:28.969Z,38.07
2017-03-24T05:29:28.894Z,39.75
2017-03-24T05:30:28.889Z,40.92
2017-03-24T05:31:28.868Z,37.48
2017-03-24T05:32:29.099Z,39.87
2017-03-24T05:33:29.071Z,42.80
2017-03-24T05:34:29.034Z,37.10
2017-03-24T05:35:29.030Z,36.37
2017-03-24T05:36:29.114Z,38.27
2017-03-24T05:37:29.846Z,34.93
2017-03-24T05:38:29.822Z,41.38
2017-03-24T05:39:29.846Z,38.00
2017-03-24T05:40:31.016Z,36.88
2017-03-24T05:41:31.015Z,39.57
2017-03-24T05:42:31.023Z,41.18
2017-03-24T05:43:30.946Z,34.07
2017-03-24T05:44:30.925Z,38.02
2017-03-24T05:45:30.890Z,39.32
2017-03-24T05:46:30.894Z,37.35
2017-03-24T05:47:30.859Z,36.48
2017-03-24T05:48:30.837Z,38.67
2017-03-24T05:49:30.816Z,40.35
2017-03-24T05:50:30.770Z,34.37
2017-03-24T05:51:30.774Z,41.08
2017-03-24T05:52:30.786Z,37.43
2017-03-24T05:53:30.759Z,36.97
2017-03-24T05:54:31.445Z,35.08
2017-03-24T05:55:31.609Z,36.17
2017-03-24T05:56:31.577Z,35.23
2017-03-24T05:57:31.632Z,34.08
2017-03-24T05:58:31.715Z,35.80
2017-03-24T05:59:32.443Z,37.32
2017-03-24T06:00:32.411Z,38.08
2017-03-24T06:01:32.468Z,33.42
2017-03-24T06:02:32.443Z,32.70
2017-03-24T06:03:32.395Z,33.82
2017-03-24T06:04:32.406Z,34.78
2017-03-24T06:05:32.414Z,34.43
2017-03-24T06:06:32.467Z,30.53
2017-03-24T06:07:32.514Z,34.13
2017-03-24T06:08:32.668Z,35.63
2017-03-24T06:09:32.691Z,34.35
2017-03-24T06:10:32.740Z,31.40
2017-03-24T06:11:33.441Z,29.10
2017-03-24T06:12:33.476Z,28.58
2017-03-24T06:13:33.466Z,36.32
2017-03-24T06:14:33.474Z,26.67
2017-03-24T06:15:33.428Z,26.48
2017-03-24T06:16:33.391Z,30.82
2017-03-24T06:17:33.466Z,28.73
2017-03-24T06:18:33.460Z,27.17
2017-03-24T06:19:33.459Z,28.90
2017-03-24T06:20:33.461Z,30.37
2017-03-24T06:21:33.571Z,26.83
2017-03-24T06:22:33.556Z,26.57
2017-03-24T06:23:33.515Z,25.70
2017-03-24T06:24:33.454Z,23.83
2017-03-24T06:25:33.418Z,25.58
2017-03-24T06:26:34.115Z,24.50
2017-03-24T06:27:34.096Z,20.33
2017-03-24T06:28:34.094Z,25.67
2017-03-24T06:29:34.042Z,28.05
2017-03-24T06:30:33.995Z,27.52
2017-03-24T06:31:33.975Z,24.05
2017-03-24T06:32:34.037Z,23.97
2017-03-24T06:33:34.311Z,28.65
2017-03-24T06:34:34.329Z,25.62
2017-03-24T06:35:34.295Z,22.98
2017-03-24T06:36:34.251Z,24.05
2017-03-24T06:37:34.299Z,24.43
2017-03-24T06:38:35.250Z,23.05
2017-03-24T06:39:36.102Z,22.78
2017-03-24T06:40:36.105Z,22.87
2017-03-24T06:41:36.058Z,21.27
2017-03-24T06:42:36.045Z,23.38
2017-03-24T06:43:35.996Z,19.73
2017-03-24T06:44:35.943Z,24.48
2017-03-24T06:45:35.881Z,23.25
2017-03-24T06:46:35.827Z,19.97
2017-03-24T06:47:36.579Z,26.95
2017-03-24T06:48:36.527Z,20.53
2017-03-24T06:49:36.497Z,20.18
2017-03-24T06:50:36.423Z,19.15
2017-03-24T06:51:36.363Z,15.75
2017-03-24T06:52:36.303Z,18.47
2017-03-24T06:53:36.298Z,13.92
2017-03-24T06:54:36.251Z,16.13
2017-03-24T06:55:36.220Z,13.93
2017-03-24T06:56:36.295Z,11.80
2017-03-24T06:57:36.266Z,18.88
2017-03-24T06:58:36.275Z,18.62
2017-03-24T06:59:36.338Z,18.07
2017-03-24T07:00:36.274Z,18.57
2017-03-24T07:01:36.246Z,16.55
2017-03-24T07:02:36.200Z,17.05
2017-03-24T07:03:36.158Z,13.55
2017-03-24T07:04:36.385Z,15.28
2017-03-24T07:05:36.429Z,17.28
2017-03-24T07:06:36.367Z,11.70
2017-03-24T07:07:37.051Z,14.92
2017-03-24T07:08:37.039Z,14.40
2017-03-24T07:09:37.002Z,15.13
2017-03-24T07:10:36.967Z,16.37
2017-03-24T07:11:36.928Z,16.90
2017-03-24T07:12:36.869Z,16.05
2017-03-24T07:13:36.814Z,13.55
2017-03-24T07:14:36.758Z,15.78
2017-03-24T07:15:36.693Z,16.93
2017-03-24T07:16:36.678Z,18.12
2017-03-24T07:17:36.614Z,16.45
2017-03-24T07:18:36.579Z,16.67
2017-03-24T07:19:36.539Z,19.67
2017-03-24T07:20:36.636Z,18.97
2017-03-24T07:21:36.601Z,17.92
2017-03-24T07:22:36.535Z,18.30
2017-03-24T07:23:36.475Z,17.13
2017-03-24T07:24:37.184Z,21.27
2017-03-24T07:25:37.320Z,18.05
2017-03-24T07:26:37.267Z,18.97
2017-03-24T07:27:37.246Z,19.47
2017-03-24T07:28:37.187Z,19.95
2017-03-24T07:29:37.178Z,20.03
2017-03-24T07:30:37.231Z,22.62
2017-03-24T07:31:37.234Z,20.40
2017-03-24T07:32:37.179Z,16.85
2017-03-24T07:33:37.177Z,15.38
2017-03-24T07:34:37.161Z,19.67
2017-03-24T07:35:38.559Z,15.28
2017-03-24T07:36:38.585Z,18.27
2017-03-24T07:37:38.637Z,19.85
2017-03-24T07:38:38.590Z,21.33
2017-03-24T07:39:38.542Z,20.85
2017-03-24T07:40:38.483Z,20.52
2017-03-24T07:41:38.515Z,22.73
2017-03-24T07:42:38.496Z,15.32
2017-03-24T07:43:38.421Z,16.55
2017-03-24T07:44:38.424Z,15.90
2017-03-24T07:45:38.472Z,21.15
2017-03-24T07:46:38.410Z,15.08
2017-03-24T07:47:38.378Z,20.12
2017-03-24T07:48:39.058Z,22.38
2017-03-24T07:49:39.096Z,22.28
2017-03-24T07:50:39.802Z,25.83
2017-03-24T07:51:39.772Z,23.92
2017-03-24T07:52:39.723Z,23.80
2017-03-24T07:53:39.823Z,18.95
2017-03-24T07:54:39.801Z,21.40
2017-03-24T07:55:39.733Z,26.02
2017-03-24T07:56:39.737Z,22.85
2017-03-24T07:57:39.697Z,29.53
2017-03-24T07:58:39.725Z,25.98
2017-03-24T07:59:39.789Z,22.12
2017-03-24T08:00:39.740Z,24.02
2017-03-24T08:01:39.688Z,26.20
2017-03-24T08:02:39.796Z,24.75
2017-03-24T08:03:39.831Z,26.80
2017-03-24T08:04:39.765Z,27.67
2017-03-24T08:05:39.742Z,28.12
2017-03-24T08:06:39.678Z,27.22
2017-03-24T08:07:39.733Z,28.15
2017-03-24T08:08:39.735Z,26.45
2017-03-24T08:09:39.800Z,25.78
2017-03-24T08:10:39.750Z,24.23
2017-03-24T08:11:39.766Z,25.62
2017-03-24T08:12:39.737Z,25.40
2017-03-24T08:13:39.743Z,26.30
2017-03-24T08:14:39.714Z,28.08
2017-03-24T08:15:39.661Z,25.82
2017-03-24T08:16:39.621Z,23.60
2017-03-24T08:17:39.619Z,27.40
2017-03-24T08:18:39.556Z,31.97
2017-03-24T08:19:39.527Z,26.40
2017-03-24T08:20:39.486Z,26.13
2017-03-24T08:21:39.440Z,24.43
2017-03-24T08:22:40.121Z,21.17
2017-03-24T08:23:40.122Z,24.38
2017-03-24T08:24:40.157Z,22.55
2017-03-24T08:25:40.104Z,24.08
2017-03-24T08:26:40.062Z,22.50
2017-03-24T08:27:39.992Z,19.18
2017-03-24T08:28:39.974Z,23.33
2017-03-24T08:29:39.994Z,22.10
2017-03-24T08:30:39.959Z,16.27
2017-03-24T08:31:39.945Z,19.20
2017-03-24T08:32:39.901Z,22.93
2017-03-24T08:33:39.877Z,24.63
2017-03-24T08:34:40.241Z,23.15
2017-03-24T08:35:40.195Z,24.37
2017-03-24T08:36:40.128Z,22.80
2017-03-24T08:37:40.086Z,24.17
2017-03-24T08:38:40.021Z,23.47
2017-03-24T08:39:40.046Z,24.78
2017-03-24T08:40:40.055Z,22.08
2017-03-24T08:41:40.093Z,29.97
2017-03-24T08:42:40.876Z,26.47
2017-03-24T08:43:40.866Z,22.52
2017-03-24T08:44:40.851Z,21.55
2017-03-24T08:45:40.827Z,18.62
2017-03-24T08:46:40.840Z,24.95
2017-03-24T08:47:40.870Z,22.47
2017-03-24T08:48:40.876Z,17.82
2017-03-24T08:49:40.867Z,23.98
2017-03-24T08:50:40.830Z,17.12
2017-03-24T08:51:40.842Z,20.32
2017-03-24T08:52:40.814Z,23.92
2017-03-24T08:53:40.810Z,20.48
2017-03-24T08:54:40.734Z,20.25
2017-03-24T08:55:41.403Z,18.08
2017-03-24T08:56:42.815Z,16.90
2017-03-24T08:57:42.862Z,14.95
2017-03-24T08:58:42.859Z,22.93
2017-03-24T08:59:42.840Z,23.88
2017-03-24T09:00:42.822Z,22.97
2017-03-24T09:01:42.762Z,17.85
2017-03-24T09:02:43.466Z,22.35
2017-03-24T09:03:43.443Z,19.17
2017-03-24T09:04:43.430Z,20.37
2017-03-24T09:05:43.485Z,20.97
2017-03-24T09:06:43.455Z,22.07
2017-03-24T09:07:43.458Z,20.92
2017-03-24T09:08:43.486Z,22.80
2017-03-24T09:09:44.299Z,22.03
2017-03-24T09:10:44.375Z,23.18
2017-03-24T09:11:45.045Z,21.23
2017-03-24T09:12:45.001Z,21.08
2017-03-24T09:13:44.966Z,18.82
2017-03-24T09:14:45.901Z,20.10
2017-03-24T09:15:46.645Z,19.68
2017-03-24T09:16:47.461Z,16.77
2017-03-24T09:17:48.152Z,19.87
2017-03-24T09:18:48.082Z,19.35
2017-03-24T09:19:48.038Z,18.43
2017-03-24T09:20:48.056Z,17.37
2017-03-24T09:21:48.135Z,20.13
2017-03-24T09:22:49.229Z,19.65
2017-03-24T09:23:49.190Z,16.57
2017-03-24T09:24:49.385Z,18.05
2017-03-24T09:25:49.390Z,19.42
2017-03-24T09:26:49.350Z,18.47
2017-03-24T09:27:49.358Z,16.77
2017-03-24T09:28:49.303Z,17.23
2017-03-24T09:29:49.234Z,19.10
2017-03-24T09:30:49.264Z,17.60
2017-03-24T09:31:49.284Z,18.18
2017-03-24T09:32:49.242Z,17.38
2017-03-24T09:33:49.340Z,19.58
2017-03-24T09:34:49.322Z,19.15
2017-03-24T09:35:49.317Z,22.35
2017-03-24T09:36:49.258Z,19.90
2017-03-24T09:37:49.250Z,17.37
2017-03-24T09:38:49.974Z,18.95
2017-03-24T09:39:50.058Z,18.90
2017-03-24T09:40:50.082Z,18.03
2017-03-24T09:41:50.810Z,17.40
2017-03-24T09:42:51.489Z,16.90
2017-03-24T09:43:51.455Z,17.83
2017-03-24T09:44:51.385Z,17.10
2017-03-24T09:45:51.390Z,17.07
2017-03-24T09:46:51.371Z,17.00
2017-03-24T09:47:51.415Z,20.00
2017-03-24T09:48:51.394Z,17.42
2017-03-24T09:49:51.352Z,20.17
2017-03-24T09:50:51.395Z,17.80
2017-03-24T09:51:51.414Z,15.27
2017-03-24T09:52:51.393Z,17.15
2017-03-24T09:53:51.407Z,15.07
2017-03-24T09:54:51.357Z,17.57
2017-03-24T09:55:53.355Z,18.22
2017-03-24T09:56:54.718Z,17.47
2017-03-24T09:57:54.681Z,17.12
2017-03-24T09:58:54.646Z,16.07
2017-03-24T09:59:54.613Z,17.05
2017-03-24T10:00:54.655Z,20.07
2017-03-24T10:01:54.669Z,16.82
2017-03-24T10:02:54.750Z,19.35
2017-03-24T10:03:54.721Z,16.75
2017-03-24T10:04:54.713Z,17.25
2017-03-24T10:05:54.724Z,15.47
2017-03-24T10:06:54.706Z,18.82
2017-03-24T10:07:54.681Z,16.00
2017-03-24T10:08:54.650Z,17.57
2017-03-24T10:09:54.597Z,16.23
2017-03-24T10:10:54.574Z,16.50
2017-03-24T10:11:54.572Z,17.25
2017-03-24T10:12:54.518Z,16.95
2017-03-24T10:13:54.478Z,14.72
2017-03-24T10:14:54.441Z,16.60
2017-03-24T10:15:54.430Z,15.62
2017-03-24T10:16:54.391Z,16.85
2017-03-24T10:17:54.341Z,17.30
2017-03-24T10:18:54.290Z,18.83
2017-03-24T10:19:54.275Z,17.17
2017-03-24T10:20:54.245Z,16.50
2017-03-24T10:21:54.209Z,17.30
2017-03-24T10:22:54.205Z,17.77
2017-03-24T10:23:54.198Z,16.07
2017-03-24T10:24:57.451Z,18.00
2017-03-24T10:25:57.435Z,17.58
2017-03-24T10:26:57.382Z,16.73
2017-03-24T10:27:57.380Z,17.24
2017-03-24T10:28:57.391Z,15.13
2017-03-24T10:29:58.146Z,17.23
2017-03-24T10:30:58.154Z,18.62
2017-03-24T10:31:58.084Z,17.47
2017-03-24T10:32:58.014Z,18.01
2017-03-24T10:33:57.980Z,17.40
2017-03-24T10:34:57.915Z,18.12
2017-03-24T10:35:58.050Z,17.17
2017-03-24T10:36:58.030Z,16.97
2017-03-24T10:37:58.018Z,14.47
2017-03-24T10:38:58.035Z,17.50
2017-03-24T10:39:57.973Z,18.37
2017-03-24T10:40:57.961Z,17.82
2017-03-24T10:41:57.986Z,17.38
2017-03-24T10:42:57.930Z,22.02
2017-03-24T10:43:57.916Z,18.23
2017-03-24T10:44:58.008Z,16.84
2017-03-24T10:45:57.979Z,16.56
2017-03-24T10:46:57.937Z,15.22
2017-03-24T10:47:58.590Z,16.88
2017-03-24T10:48:58.535Z,15.68
2017-03-24T10:49:58.509Z,16.60
2017-03-24T10:50:58.559Z,17.50
2017-03-24T10:51:58.575Z,15.93
2017-03-24T10:52:58.537Z,17.27
2017-03-24T10:53:58.517Z,19.38
2017-03-24T10:54:58.489Z,17.82
2017-03-24T10:55:58.484Z,17.05
2017-03-24T10:56:58.484Z,16.72
2017-03-24T10:57:59.185Z,16.83
2017-03-24T10:58:59.181Z,16.92
2017-03-24T10:59:59.156Z,18.38
2017-03-24T11:00:59.196Z,17.88
2017-03-24T11:01:59.193Z,17.18
2017-03-24T11:02:59.333Z,16.70
2017-03-24T11:03:59.313Z,19.81
2017-03-24T11:04:59.645Z,18.40
2017-03-24T11:05:59.631Z,15.22
2017-03-24T11:06:59.600Z,17.45
2017-03-24T11:07:59.569Z,17.69
2017-03-24T11:09:00.118Z,17.17
2017-03-24T11:10:00.120Z,16.81
2017-03-24T11:11:01.355Z,15.94
2017-03-24T11:12:01.337Z,18.27
2017-03-24T11:13:01.314Z,16.56
2017-03-24T11:14:01.268Z,15.83
2017-03-24T11:15:01.227Z,17.16
2017-03-24T11:16:01.277Z,17.96
2017-03-24T11:17:01.354Z,15.96
2017-03-24T11:18:01.330Z,15.50
2017-03-24T11:19:01.317Z,14.80
2017-03-24T11:20:01.303Z,16.61
2017-03-24T11:21:01.285Z,14.84
2017-03-24T11:22:01.509Z,17.63
2017-03-24T11:23:01.613Z,16.71
2017-03-24T11:24:02.314Z,16.03
2017-03-24T11:28:31.161Z,16.90
2017-03-24T11:29:31.137Z,14.70
2017-03-24T11:30:31.087Z,15.29
2017-03-24T11:31:31.113Z,15.93
2017-03-24T11:32:31.093Z,17.04
2017-03-24T11:33:31.130Z,16.60
2017-03-24T11:34:31.138Z,14.14
2017-03-24T11:35:31.166Z,15.27
2017-03-24T11:36:31.121Z,16.36
2017-03-24T11:37:31.097Z,15.70
2017-03-24T11:38:31.857Z,15.82
2017-03-24T11:39:31.900Z,15.70
2017-03-24T11:40:31.880Z,17.05
2017-03-24T11:41:31.841Z,14.62
2017-03-24T11:42:31.831Z,15.48
2017-03-24T11:43:31.802Z,15.94
2017-03-24T11:44:31.807Z,15.53
2017-03-24T11:45:31.790Z,13.43
2017-03-24T11:46:31.774Z,15.03
2017-03-24T11:47:32.498Z,15.73
2017-03-24T11:48:33.241Z,15.91
2017-03-24T11:49:33.236Z,17.84
2017-03-24T11:50:33.218Z,14.87
2017-03-24T11:51:33.206Z,15.63
2017-03-24T11:52:33.150Z,16.41
2017-03-24T11:53:33.145Z,16.11
2017-03-24T11:54:33.107Z,14.90
2017-03-24T11:55:33.082Z,16.60
2017-03-24T11:56:33.094Z,14.79
2017-03-24T11:57:33.101Z,15.14
2017-03-24T11:58:33.115Z,16.53
2017-03-24T11:59:33.186Z,14.69
2017-03-24T12:00:33.194Z,15.17
2017-03-24T12:01:33.918Z,16.19
2017-03-24T12:02:33.885Z,17.53
2017-03-24T12:04:48.026Z,15.86
2017-03-24T12:05:47.997Z,16.01
2017-03-24T12:06:47.978Z,14.94
2017-03-24T12:07:48.057Z,14.51
2017-03-24T12:08:48.041Z,15.50
2017-03-24T12:09:48.025Z,13.64
2017-03-24T12:10:48.001Z,12.61
2017-03-24T12:11:48.009Z,14.16
2017-03-24T12:12:47.964Z,14.79
2017-03-24T12:13:47.934Z,14.43
2017-03-24T12:14:47.945Z,14.09
2017-03-24T12:15:48.644Z,16.87
2017-03-24T12:16:48.610Z,14.13
2017-03-24T12:17:48.590Z,16.14
2017-03-24T12:18:48.566Z,15.33
2017-03-24T12:19:48.568Z,16.66
2017-03-24T12:20:48.765Z,15.13
2017-03-24T12:21:48.824Z,15.77
2017-03-24T12:22:48.788Z,15.10
2017-03-24T12:23:48.754Z,15.14
2017-03-24T12:24:48.786Z,14.30
2017-03-24T12:25:48.771Z,15.13
2017-03-24T12:26:48.775Z,16.30
2017-03-24T12:27:48.869Z,15.63
2017-03-24T12:28:48.871Z,15.09
2017-03-24T12:29:48.857Z,16.64
2017-03-24T12:30:48.848Z,17.69
2017-03-24T12:31:48.844Z,15.67
2017-03-24T12:32:48.817Z,16.46
2017-03-24T12:33:48.861Z,15.64
2017-03-24T12:34:48.851Z,15.50
2017-03-24T12:35:48.877Z,16.00
2017-03-24T12:36:48.941Z,15.01
2017-03-24T12:37:48.952Z,16.61
2017-03-24T12:38:48.973Z,15.37
2017-03-24T12:39:49.861Z,14.44
2017-03-24T12:40:49.889Z,16.00
2017-03-24T12:41:49.826Z,17.37
2017-03-24T12:42:49.855Z,15.57
2017-03-24T12:43:49.826Z,16.34
2017-03-24T12:44:49.830Z,16.79
2017-03-24T12:45:49.799Z,14.77
2017-03-24T12:46:49.793Z,16.70
2017-03-24T12:47:50.586Z,19.49
2017-03-24T12:48:50.558Z,17.09
2017-03-24T12:49:50.527Z,16.01
2017-03-24T12:50:50.514Z,16.89
2017-03-24T12:51:50.522Z,16.90
2017-03-24T12:52:50.482Z,16.43
2017-03-24T12:53:50.574Z,18.43
2017-03-24T12:54:50.581Z,18.77
2017-03-24T12:55:50.591Z,18.40
2017-03-24T12:56:50.618Z,18.13
2017-03-24T12:57:50.571Z,20.96
2017-03-24T12:58:50.532Z,16.29